Weather at El Tepual Airport

Public forecast

Using degrees Celsius for public forecast. Weather courtesy of forecast.io.

Current aviation weather report (METAR) for El Tepual Airport

2024/05/21 17:00 (retrieved 27 minutes ago)

SCTE 211700Z 34008KT 310V010 9999 -SHRA SCT013 BKN033 10/08 Q1016 NOSIG

Aviation forecast (TAF) for El Tepual Airport

2024/05/21 12:33 (retrieved 5 hours ago)

TAF SCTE 211036Z 2112/2212 01010KT 9999 SCT010 BKN025 TX10/2118Z TN03/2211Z TEMPO 2113/2120 7000 -SHRA BECMG 2120/2122 26004KT BKN015 BECMG 2206/2208 VRB02KT 1500 BR BKN002